createdAt,value
2023-04-12T00:00:40.103Z,3.50
2023-04-12T00:05:47.015Z,4.23
2023-04-12T00:10:49.402Z,4.10
2023-04-12T00:15:52.060Z,3.73
2023-04-12T00:20:56.244Z,4.83
2023-04-12T00:25:58.742Z,5.20
2023-04-12T00:31:01.445Z,4.00
2023-04-12T00:36:04.317Z,3.03
2023-04-12T00:41:07.189Z,3.73
2023-04-12T00:46:12.398Z,2.80
2023-04-12T00:51:15.213Z,4.30
2023-04-12T00:56:18.139Z,3.77
2023-04-12T01:01:21.844Z,2.03
2023-04-12T01:07:01.707Z,3.37
2023-04-12T01:12:34.784Z,3.77
2023-04-12T01:18:09.764Z,2.67
2023-04-12T01:23:37.446Z,3.87
2023-04-12T01:28:44.629Z,4.03
2023-04-12T01:33:49.548Z,3.37
2023-04-12T01:38:55.223Z,3.70
2023-04-12T01:43:57.947Z,3.93
2023-04-12T01:49:01.052Z,4.87
2023-04-12T01:54:11.949Z,3.53
2023-04-12T01:59:16.051Z,4.33
2023-04-12T02:04:21.232Z,3.37
2023-04-12T02:09:24.043Z,3.27
2023-04-12T02:14:27.183Z,4.63
2023-04-12T02:19:29.692Z,5.30
2023-04-12T02:24:33.269Z,3.87
2023-04-12T02:29:36.175Z,5.03
2023-04-12T02:34:39.900Z,3.20
2023-04-12T02:39:56.980Z,5.57
2023-04-12T02:45:01.073Z,4.43
2023-04-12T02:50:05.281Z,4.67
2023-04-12T02:55:15.590Z,6.73
2023-04-12T03:00:18.991Z,4.63
2023-04-12T03:05:24.447Z,3.40
2023-04-12T03:10:27.779Z,3.40
2023-04-12T03:15:37.724Z,4.37
2023-04-12T03:20:46.034Z,2.97
2023-04-12T03:25:50.138Z,6.10
2023-04-12T03:31:11.030Z,5.90
2023-04-12T03:36:17.281Z,5.97
2023-04-12T03:41:24.670Z,4.13
2023-04-12T03:46:27.302Z,6.10
2023-04-12T03:51:34.362Z,6.65
2023-04-12T03:56:40.067Z,6.23
2023-04-12T04:01:49.198Z,4.00
2023-04-12T04:06:52.499Z,5.23
2023-04-12T04:11:56.055Z,6.20
2023-04-12T04:16:59.513Z,4.00
2023-04-12T04:22:02.897Z,7.57
2023-04-12T04:27:06.363Z,5.40
2023-04-12T04:32:08.924Z,6.40
2023-04-12T04:37:12.498Z,7.03
2023-04-12T04:42:19.133Z,5.77
2023-04-12T04:47:36.679Z,9.30
2023-04-12T04:52:42.153Z,9.53
2023-04-12T04:57:48.609Z,8.43
2023-04-12T05:02:52.334Z,8.07
2023-04-12T05:08:05.974Z,7.93
2023-04-12T05:13:10.789Z,7.00
2023-04-12T05:18:15.280Z,6.97
2023-04-12T05:23:18.100Z,7.97
2023-04-12T05:28:20.652Z,7.23
2023-04-12T05:33:23.425Z,6.87
2023-04-12T05:38:25.995Z,5.97
2023-04-12T05:43:33.323Z,8.20
2023-04-12T05:48:35.896Z,7.30
2023-04-12T05:53:38.526Z,6.73
2023-04-12T05:58:42.926Z,7.30
2023-04-12T06:03:46.467Z,6.87
2023-04-12T06:08:49.161Z,6.20
2023-04-12T06:13:51.641Z,7.60
2023-04-12T06:18:54.431Z,8.30
2023-04-12T06:23:57.010Z,7.30
2023-04-12T06:29:00.259Z,7.83
2023-04-12T06:34:03.254Z,7.57
2023-04-12T06:39:06.857Z,9.13
2023-04-12T06:44:09.971Z,7.83
2023-04-12T06:49:12.442Z,8.90
2023-04-12T06:54:15.049Z,6.93
2023-04-12T06:59:17.820Z,6.60
2023-04-12T07:04:21.249Z,7.23
2023-04-12T07:09:23.954Z,8.20
2023-04-12T07:14:26.569Z,6.00
2023-04-12T07:19:31.250Z,9.30
2023-04-12T07:24:34.041Z,8.63
2023-04-12T07:29:36.854Z,7.47
2023-04-12T07:34:39.566Z,11.63
2023-04-12T07:39:42.331Z,6.27
2023-04-12T07:44:44.929Z,9.17
2023-04-12T07:49:47.411Z,10.47
2023-04-12T07:54:50.010Z,9.80
2023-04-12T07:59:52.770Z,9.13
2023-04-12T08:04:55.153Z,7.17
2023-04-12T08:09:57.611Z,8.83
2023-04-12T08:15:00.207Z,7.17
2023-04-12T08:20:03.850Z,9.47
2023-04-12T08:25:06.911Z,8.57
2023-04-12T08:30:10.738Z,8.70
2023-04-12T08:35:14.630Z,8.03
2023-04-12T08:40:17.383Z,8.70
2023-04-12T08:45:24.700Z,8.33
2023-04-12T08:50:27.319Z,10.27
2023-04-12T08:55:30.628Z,4.30
2023-04-12T09:00:34.528Z,12.47
2023-04-12T09:05:37.057Z,10.63
2023-04-12T09:10:39.791Z,6.17
2023-04-12T09:15:51.631Z,8.60
2023-04-12T09:21:13.064Z,10.33
2023-04-12T09:26:29.242Z,5.93
2023-04-12T09:31:32.108Z,8.37
2023-04-12T09:36:38.900Z,6.73
2023-04-12T09:41:41.455Z,6.30
2023-04-12T09:47:04.234Z,6.03
2023-04-12T09:52:08.674Z,6.87
2023-04-12T09:57:12.364Z,6.90
2023-04-12T10:02:17.396Z,7.33
2023-04-12T10:07:20.229Z,8.10
2023-04-12T10:12:22.955Z,6.90
2023-04-12T10:17:26.432Z,8.83
2023-04-12T10:22:29.282Z,4.90
2023-04-12T10:27:32.360Z,5.37
2023-04-12T10:32:36.096Z,4.30
2023-04-12T10:38:01.302Z,4.27
2023-04-12T10:43:22.901Z,4.80
2023-04-12T10:48:39.668Z,4.90
2023-04-12T10:53:42.219Z,5.17
2023-04-12T10:58:51.487Z,4.33
2023-04-12T11:04:17.372Z,3.60
2023-04-12T11:09:33.206Z,4.23
2023-04-12T11:14:37.681Z,3.50
2023-04-12T11:19:44.509Z,3.77
2023-04-12T11:24:52.561Z,3.57
2023-04-12T11:29:57.820Z,4.20
2023-04-12T11:35:00.459Z,4.77
2023-04-12T11:40:09.488Z,3.87
2023-04-12T11:45:17.219Z,3.47
2023-04-12T11:50:31.358Z,5.30
2023-04-12T11:55:34.144Z,6.10
2023-04-12T12:00:37.178Z,5.20
2023-04-12T12:05:42.074Z,4.77
2023-04-12T12:11:04.010Z,5.43
2023-04-12T12:16:08.583Z,5.27
2023-04-12T12:21:13.436Z,5.60
2023-04-12T12:26:28.247Z,4.87
2023-04-12T12:31:31.442Z,4.63
2023-04-12T12:36:36.396Z,4.67
2023-04-12T12:41:40.012Z,4.47
2023-04-12T12:51:48.038Z,4.60
2023-04-12T12:56:50.593Z,3.30
2023-04-12T13:01:53.072Z,4.43
2023-04-12T13:06:55.525Z,4.70
2023-04-12T13:11:57.948Z,3.63
2023-04-12T13:17:00.532Z,6.10
2023-04-12T13:22:03.357Z,4.90
2023-04-12T13:27:05.870Z,4.43
2023-04-12T13:32:08.778Z,5.47
2023-04-12T13:37:11.698Z,4.43
2023-04-12T13:42:14.048Z,4.43
2023-04-12T13:47:18.010Z,4.10
2023-04-12T13:52:21.086Z,2.90
2023-04-12T13:57:23.646Z,3.33
2023-04-12T14:02:26.473Z,2.80
2023-04-12T14:07:29.989Z,3.77
2023-04-12T14:12:32.481Z,2.90
2023-04-12T14:17:35.119Z,3.30
2023-04-12T14:22:37.669Z,4.00
2023-04-12T14:27:40.274Z,3.73
2023-04-12T14:32:43.992Z,1.97
2023-04-12T14:37:48.419Z,2.30
2023-04-12T14:42:51.271Z,2.50
2023-04-12T14:47:54.432Z,2.80
2023-04-12T14:52:56.989Z,2.73
2023-04-12T14:57:59.497Z,2.47
2023-04-12T15:03:02.449Z,2.63
2023-04-12T15:08:05.131Z,3.00
2023-04-12T15:13:07.832Z,3.00
2023-04-12T15:18:10.521Z,2.80
2023-04-12T15:23:12.991Z,3.20
2023-04-12T15:28:15.848Z,1.90
2023-04-12T15:33:19.039Z,3.17
2023-04-12T15:38:23.755Z,2.23
2023-04-12T15:43:26.869Z,1.97
2023-04-12T15:48:29.603Z,2.90
2023-04-12T15:53:32.170Z,2.80
2023-04-12T15:58:34.679Z,2.07
2023-04-12T16:03:37.610Z,2.00
2023-04-12T16:08:40.353Z,2.40
2023-04-12T16:13:45.394Z,1.33
2023-04-12T16:18:48.351Z,1.97
2023-04-12T16:23:51.485Z,1.97
2023-04-12T16:28:53.946Z,1.80
2023-04-12T16:33:56.619Z,2.60
2023-04-12T16:39:01.200Z,2.03
2023-04-12T16:44:03.550Z,1.70
2023-04-12T16:49:06.105Z,2.53
2023-04-12T16:54:08.559Z,2.77
2023-04-12T16:59:11.031Z,2.00
2023-04-12T17:04:14.595Z,2.70
2023-04-12T17:09:17.131Z,2.70
2023-04-12T17:14:19.768Z,2.40
2023-04-12T17:19:22.181Z,2.70
2023-04-12T17:24:25.539Z,3.30
2023-04-12T17:29:28.137Z,4.30
2023-04-12T17:34:31.551Z,7.07
2023-04-12T17:39:34.116Z,4.97
2023-04-12T17:44:36.720Z,7.00
2023-04-12T17:49:39.392Z,6.67
2023-04-12T17:54:41.938Z,9.83
2023-04-12T17:59:44.702Z,12.60
2023-04-12T18:04:48.483Z,11.77
2023-04-12T18:09:51.570Z,8.27
2023-04-12T18:14:54.226Z,8.83
2023-04-12T18:19:56.762Z,7.37
2023-04-12T18:24:59.225Z,8.00
2023-04-12T18:30:03.460Z,8.73
2023-04-12T18:35:06.547Z,8.77
2023-04-12T18:40:10.495Z,8.40
2023-04-12T18:45:13.178Z,10.37
2023-04-12T18:50:16.003Z,11.13
2023-04-12T18:55:18.465Z,7.73
2023-04-12T19:00:21.433Z,10.90
2023-04-12T19:05:23.937Z,8.37
2023-04-12T19:10:30.487Z,7.23
2023-04-12T19:15:33.885Z,5.60
2023-04-12T19:20:36.425Z,8.07
2023-04-12T19:25:39.078Z,5.33
2023-04-12T19:30:41.568Z,4.87
2023-04-12T19:35:44.052Z,7.47
2023-04-12T19:40:46.973Z,7.37
2023-04-12T19:45:49.726Z,8.10
2023-04-12T19:50:52.874Z,6.87
2023-04-12T19:55:59.846Z,7.13
2023-04-12T20:01:03.070Z,12.80
2023-04-12T20:06:05.753Z,10.07
2023-04-12T20:11:08.754Z,9.47
2023-04-12T20:16:11.265Z,8.70
2023-04-12T20:21:13.683Z,10.47
2023-04-12T20:26:16.343Z,5.53
2023-04-12T20:31:20.316Z,5.93
2023-04-12T20:36:23.652Z,4.90
2023-04-12T20:41:26.375Z,4.87
2023-04-12T20:46:30.844Z,8.43
2023-04-12T20:51:33.309Z,8.07
2023-04-12T20:56:36.286Z,10.43
2023-04-12T21:01:38.904Z,4.40
2023-04-12T21:06:42.420Z,5.43
2023-04-12T21:11:44.924Z,9.13
2023-04-12T21:16:50.837Z,7.00
2023-04-12T21:21:53.468Z,10.83
2023-04-12T21:26:56.685Z,8.40
2023-04-12T21:31:59.220Z,6.87
2023-04-12T21:37:02.460Z,3.97
2023-04-12T21:42:04.931Z,6.37
2023-04-12T21:47:07.595Z,6.77
2023-04-12T21:52:10.031Z,10.70
2023-04-12T21:57:12.700Z,8.50
2023-04-12T22:02:15.875Z,6.53
2023-04-12T22:07:18.785Z,8.70
2023-04-12T22:12:21.838Z,10.47
2023-04-12T22:17:24.683Z,6.93
2023-04-12T22:22:29.284Z,10.67
2023-04-12T22:27:31.836Z,7.77
2023-04-12T22:38:04.922Z,7.30
2023-04-12T22:43:17.815Z,8.43
2023-04-12T22:48:20.355Z,8.47
2023-04-12T22:53:22.799Z,11.67
2023-04-12T22:58:25.448Z,10.53
2023-04-12T23:03:28.652Z,10.23
2023-04-12T23:08:31.327Z,11.27
2023-04-12T23:13:34.996Z,13.90
2023-04-12T23:18:37.857Z,13.80
2023-04-12T23:23:40.860Z,8.87
2023-04-12T23:28:43.338Z,12.90
2023-04-12T23:33:46.546Z,14.53
2023-04-12T23:38:55.133Z,11.33
2023-04-12T23:43:58.342Z,10.13
2023-04-12T23:49:01.043Z,16.40
2023-04-12T23:54:03.807Z,12.80
2023-04-12T23:59:06.273Z,12.27
